createdAt,value
2023-02-08T00:01:40.351Z,75.90
2023-02-08T00:04:09.115Z,77.20
2023-02-08T00:06:37.477Z,77.50
2023-02-08T00:09:07.435Z,78.50
2023-02-08T00:11:36.191Z,72.60
2023-02-08T00:14:04.555Z,74.80
2023-02-08T00:16:33.563Z,73.30
2023-02-08T00:19:01.883Z,75.10
2023-02-08T00:21:30.348Z,74.20
2023-02-08T00:23:58.683Z,67.50
2023-02-08T00:26:27.029Z,68.30
2023-02-08T00:28:55.491Z,69.30
2023-02-08T00:31:23.969Z,76.90
2023-02-08T00:33:52.305Z,77.40
2023-02-08T00:36:21.060Z,84.60
2023-02-08T00:38:49.394Z,84.80
2023-02-08T00:41:17.783Z,85.50
2023-02-08T00:43:49.514Z,79.40
2023-02-08T00:46:17.961Z,83.60
2023-02-08T00:48:46.385Z,81.60
2023-02-08T00:51:15.547Z,74.20
2023-02-08T00:53:45.980Z,75.20
2023-02-08T00:56:16.045Z,79.10
2023-02-08T00:58:44.558Z,75.70
2023-02-08T01:01:13.904Z,72.30
2023-02-08T01:03:45.694Z,72.50
2023-02-08T01:06:18.201Z,73.70
2023-02-08T01:08:47.004Z,74.50
2023-02-08T01:11:21.981Z,76.80
2023-02-08T01:13:51.239Z,77.50
2023-02-08T01:16:23.004Z,78.40
2023-02-08T01:18:53.415Z,77.80
2023-02-08T01:21:25.028Z,74.50
2023-02-08T01:23:54.103Z,73.90
2023-02-08T01:26:23.853Z,70.30
2023-02-08T01:28:54.147Z,71.50
2023-02-08T01:31:26.407Z,74.10
2023-02-08T01:33:56.596Z,72.50
2023-02-08T01:36:26.566Z,74.60
2023-02-08T01:38:55.537Z,77.90
2023-02-08T01:41:43.889Z,74.30
2023-02-08T01:44:12.171Z,71.90
2023-02-08T01:46:41.931Z,71.20
2023-02-08T01:49:29.106Z,72.90
2023-02-08T01:52:00.551Z,71.90
2023-02-08T01:54:37.321Z,80.00
2023-02-08T01:57:07.033Z,78.40
2023-02-08T01:59:54.977Z,72.50
2023-02-08T02:02:25.510Z,75.10
2023-02-08T02:04:55.898Z,75.80
2023-02-08T02:07:28.745Z,75.70
2023-02-08T02:10:06.008Z,73.40
2023-02-08T02:12:37.809Z,75.30
2023-02-08T02:15:07.728Z,79.10
2023-02-08T02:17:38.260Z,78.10
2023-02-08T02:20:24.336Z,72.90
2023-02-08T02:23:11.506Z,75.70
2023-02-08T02:25:51.925Z,71.60
2023-02-08T02:28:35.378Z,75.50
2023-02-08T02:31:39.691Z,76.10
2023-02-08T02:34:08.012Z,81.90
2023-02-08T02:36:49.219Z,73.70
2023-02-08T02:39:34.333Z,73.70
2023-02-08T02:43:07.479Z,67.80
2023-02-08T02:46:17.423Z,70.90
2023-02-08T02:48:53.193Z,72.90
2023-02-08T02:51:30.511Z,75.70
2023-02-08T02:54:21.131Z,78.80
2023-02-08T02:56:56.039Z,78.00
2023-02-08T02:59:26.499Z,72.70
2023-02-08T03:01:56.686Z,69.80
2023-02-08T03:04:34.562Z,75.30
2023-02-08T03:07:17.937Z,76.90
2023-02-08T03:10:08.028Z,76.10
2023-02-08T03:12:44.343Z,75.40
2023-02-08T03:15:29.160Z,76.50
2023-02-08T03:18:14.928Z,76.00
2023-02-08T03:21:00.848Z,73.10
2023-02-08T03:23:37.246Z,76.30
2023-02-08T03:26:28.752Z,74.20
2023-02-08T03:29:18.648Z,74.50
2023-02-08T03:32:17.272Z,77.50
2023-02-08T03:34:57.348Z,75.00
2023-02-08T03:37:51.973Z,74.50
2023-02-08T03:40:25.817Z,72.40
2023-02-08T03:42:58.690Z,72.40
2023-02-08T03:45:33.507Z,75.70
2023-02-08T03:48:06.956Z,74.90
2023-02-08T03:50:40.042Z,76.70
2023-02-08T03:53:10.753Z,78.20
2023-02-08T03:55:41.162Z,73.20
2023-02-08T03:58:46.923Z,78.80
2023-02-08T04:01:27.301Z,74.30
2023-02-08T04:03:57.501Z,74.80
2023-02-08T04:06:26.095Z,75.40
2023-02-08T04:08:54.340Z,79.40
2023-02-08T04:11:22.683Z,76.00
2023-02-08T04:13:51.032Z,71.20
2023-02-08T04:16:19.332Z,70.00
2023-02-08T04:18:47.638Z,77.00
2023-02-08T04:21:17.177Z,76.50
2023-02-08T04:23:45.484Z,72.90
2023-02-08T04:26:13.803Z,74.80
2023-02-08T04:28:42.277Z,75.20
2023-02-08T04:31:10.803Z,70.30
2023-02-08T04:33:39.193Z,70.30
2023-02-08T04:36:07.869Z,65.20
2023-02-08T04:38:36.227Z,67.60
2023-02-08T04:41:04.707Z,69.00
2023-02-08T04:43:33.093Z,73.10
2023-02-08T04:46:01.506Z,72.70
2023-02-08T04:48:30.150Z,68.60
2023-02-08T04:50:58.966Z,68.60
2023-02-08T04:53:27.488Z,64.90
2023-02-08T04:55:55.871Z,67.50
2023-02-08T04:58:24.372Z,69.70
2023-02-08T05:00:52.852Z,69.80
2023-02-08T05:03:21.258Z,72.70
2023-02-08T05:06:00.445Z,71.20
2023-02-08T05:08:29.297Z,67.60
2023-02-08T05:10:57.888Z,66.50
2023-02-08T05:13:26.181Z,69.00
2023-02-08T05:15:54.631Z,69.40
2023-02-08T05:18:23.223Z,76.80
2023-02-08T05:20:59.996Z,75.30
2023-02-08T05:23:28.666Z,72.00
2023-02-08T05:25:57.336Z,68.80
2023-02-08T05:28:26.130Z,70.20
2023-02-08T05:30:54.729Z,68.70
2023-02-08T05:33:23.666Z,70.70
2023-02-08T05:35:51.978Z,72.30
2023-02-08T05:38:20.379Z,75.30
2023-02-08T05:40:48.618Z,70.40
2023-02-08T05:43:17.649Z,72.90
2023-02-08T05:45:45.943Z,74.50
2023-02-08T05:48:14.401Z,77.70
2023-02-08T05:50:43.215Z,81.50
2023-02-08T05:53:11.700Z,86.10
2023-02-08T05:55:39.974Z,72.70
2023-02-08T05:58:08.340Z,78.40
2023-02-08T06:00:36.818Z,70.40
2023-02-08T06:03:05.191Z,69.00
2023-02-08T06:05:34.106Z,72.30
2023-02-08T06:08:02.609Z,73.70
2023-02-08T06:10:31.079Z,76.60
2023-02-08T06:12:59.736Z,71.60
2023-02-08T06:15:28.470Z,63.90
2023-02-08T06:17:57.304Z,60.60
2023-02-08T06:20:25.862Z,58.50
2023-02-08T06:22:56.546Z,63.00
2023-02-08T06:25:24.873Z,67.90
2023-02-08T06:27:54.307Z,67.30
2023-02-08T06:30:24.091Z,57.70
2023-02-08T06:32:52.828Z,51.30
2023-02-08T06:35:21.280Z,47.60
2023-02-08T06:37:49.900Z,46.30
2023-02-08T06:40:18.412Z,47.70
2023-02-08T06:42:48.079Z,45.00
2023-02-08T06:45:17.565Z,46.10
2023-02-08T06:47:45.899Z,42.20
2023-02-08T06:50:15.475Z,45.30
2023-02-08T06:52:44.758Z,40.10
2023-02-08T06:55:14.154Z,43.00
2023-02-08T06:57:42.567Z,41.70
2023-02-08T07:00:15.488Z,45.30
2023-02-08T07:02:43.957Z,41.50
2023-02-08T07:05:12.806Z,41.60
2023-02-08T07:07:42.571Z,38.20
2023-02-08T07:10:10.982Z,37.00
2023-02-08T07:12:39.514Z,39.80
2023-02-08T07:15:13.333Z,39.30
2023-02-08T07:17:41.719Z,35.40
2023-02-08T07:20:11.705Z,36.80
2023-02-08T07:22:40.588Z,38.90
2023-02-08T07:25:09.671Z,39.50
2023-02-08T07:27:38.284Z,40.00
2023-02-08T07:30:08.283Z,40.30
2023-02-08T07:32:36.695Z,38.90
2023-02-08T07:35:05.310Z,39.80
2023-02-08T07:37:33.954Z,38.60
2023-02-08T07:40:02.417Z,37.00
2023-02-08T07:42:30.751Z,40.20
2023-02-08T07:47:46.856Z,50.00
2023-02-08T07:50:16.660Z,56.10
2023-02-08T07:52:46.499Z,52.20
2023-02-08T07:55:18.864Z,51.80
2023-02-08T07:57:49.342Z,52.80
2023-02-08T08:00:19.113Z,54.20
2023-02-08T08:02:50.667Z,50.40
2023-02-08T08:05:19.286Z,45.30
2023-02-08T08:07:48.145Z,46.20
2023-02-08T08:10:16.538Z,40.40
2023-02-08T08:12:44.835Z,53.60
2023-02-08T08:15:13.295Z,38.80
2023-02-08T08:17:42.430Z,42.30
2023-02-08T08:20:11.826Z,53.00
2023-02-08T08:22:40.216Z,48.90
2023-02-08T08:25:08.756Z,43.20
2023-02-08T08:27:37.768Z,43.60
2023-02-08T08:30:08.463Z,43.30
2023-02-08T08:32:38.539Z,45.00
2023-02-08T08:35:08.496Z,41.80
2023-02-08T08:37:37.590Z,38.90
2023-02-08T08:40:07.894Z,39.20
2023-02-08T08:42:37.013Z,41.30
2023-02-08T08:45:06.486Z,36.90
2023-02-08T08:47:35.163Z,39.30
2023-02-08T08:50:03.908Z,43.00
2023-02-08T08:52:32.305Z,40.70
2023-02-08T08:55:00.646Z,43.20
2023-02-08T08:57:29.151Z,41.30
2023-02-08T08:59:57.621Z,37.70
2023-02-08T09:02:30.625Z,36.10
2023-02-08T09:05:00.899Z,41.50
2023-02-08T09:07:29.419Z,41.40
2023-02-08T09:09:57.845Z,37.00
2023-02-08T09:12:31.339Z,34.70
2023-02-08T09:14:59.715Z,37.60
2023-02-08T09:17:28.619Z,27.00
2023-02-08T09:19:57.195Z,22.60
2023-02-08T09:22:25.567Z,19.50
2023-02-08T09:24:54.213Z,19.90
2023-02-08T09:27:22.739Z,19.40
2023-02-08T09:29:51.150Z,20.90
2023-02-08T09:32:21.304Z,20.30
2023-02-08T09:34:49.867Z,21.10
2023-02-08T09:37:21.048Z,25.70
2023-02-08T09:39:49.578Z,25.40
2023-02-08T09:42:42.386Z,25.30
2023-02-08T09:45:22.846Z,23.50
2023-02-08T09:48:10.984Z,27.30
2023-02-08T09:50:48.830Z,24.90
2023-02-08T09:53:30.741Z,23.10
2023-02-08T09:56:02.072Z,19.80
2023-02-08T09:58:54.068Z,19.50
2023-02-08T10:01:30.060Z,18.10
2023-02-08T10:04:28.925Z,19.90
2023-02-08T10:06:57.465Z,15.70
2023-02-08T10:09:27.454Z,18.80
2023-02-08T10:12:19.852Z,15.00
2023-02-08T10:15:07.010Z,14.40
2023-02-08T10:18:06.515Z,21.70
2023-02-08T10:20:37.664Z,21.80
2023-02-08T10:23:17.248Z,16.00
2023-02-08T10:26:11.063Z,16.30
2023-02-08T10:28:42.491Z,14.80
2023-02-08T10:31:20.346Z,16.00
2023-02-08T10:33:55.219Z,16.60
2023-02-08T10:38:56.966Z,15.70
2023-02-08T10:41:32.243Z,14.30
2023-02-08T10:44:14.538Z,13.50
2023-02-08T10:47:20.685Z,12.80
2023-02-08T10:50:35.891Z,14.10
2023-02-08T10:53:07.898Z,12.90
2023-02-08T10:55:48.092Z,14.00
2023-02-08T10:58:20.203Z,15.80
2023-02-08T11:00:52.098Z,14.30
2023-02-08T11:03:27.269Z,14.00
2023-02-08T11:05:58.797Z,13.00
2023-02-08T11:08:29.034Z,53.80
2023-02-08T11:11:07.793Z,30.20
2023-02-08T11:13:39.786Z,45.30
2023-02-08T11:16:12.692Z,15.90
2023-02-08T11:18:49.188Z,15.00
2023-02-08T11:21:29.461Z,12.40
2023-02-08T11:23:58.530Z,13.10
2023-02-08T11:26:40.074Z,11.40
2023-02-08T11:29:17.608Z,13.90
2023-02-08T11:31:55.216Z,14.30
2023-02-08T11:34:28.459Z,12.10
2023-02-08T11:36:59.492Z,12.50
2023-02-08T11:39:54.459Z,13.20
2023-02-08T11:42:29.854Z,11.20
2023-02-08T11:44:59.963Z,9.70
2023-02-08T11:47:34.449Z,12.70
2023-02-08T11:50:06.775Z,11.90
2023-02-08T11:52:43.420Z,11.80
2023-02-08T11:55:17.715Z,9.40
2023-02-08T11:58:19.227Z,9.60
2023-02-08T12:01:21.697Z,7.80
2023-02-08T12:03:51.103Z,17.00
2023-02-08T12:06:28.729Z,8.90
2023-02-08T12:09:12.700Z,11.60
2023-02-08T12:11:47.462Z,10.30
2023-02-08T12:14:27.747Z,8.20
2023-02-08T12:17:23.303Z,9.50
2023-02-08T12:20:23.305Z,8.80
2023-02-08T12:23:03.504Z,9.60
2023-02-08T12:25:31.908Z,9.40
2023-02-08T12:28:42.528Z,12.10
2023-02-08T12:31:38.844Z,9.30
2023-02-08T12:34:36.775Z,9.20
2023-02-08T12:37:53.584Z,7.20
2023-02-08T12:40:51.112Z,7.10
2023-02-08T12:43:52.033Z,7.60
2023-02-08T12:46:23.481Z,7.80
2023-02-08T12:49:04.197Z,7.70
2023-02-08T12:51:57.140Z,7.20
2023-02-08T12:54:54.230Z,8.00
2023-02-08T12:57:27.251Z,7.30
2023-02-08T13:00:36.927Z,8.30
2023-02-08T13:03:11.467Z,7.70
2023-02-08T13:05:53.472Z,8.10
2023-02-08T13:08:50.556Z,11.30
2023-02-08T13:12:04.589Z,8.10
2023-02-08T13:14:57.492Z,8.30
2023-02-08T13:17:55.203Z,8.50
2023-02-08T13:20:43.914Z,9.70
2023-02-08T13:23:52.096Z,9.40
2023-02-08T13:26:33.308Z,10.30
2023-02-08T13:29:03.040Z,9.60
2023-02-08T13:31:54.043Z,9.10
2023-02-08T13:34:31.536Z,9.60
2023-02-08T13:37:08.840Z,10.90
2023-02-08T13:39:46.355Z,9.60
2023-02-08T13:42:20.799Z,10.50
2023-02-08T13:44:55.701Z,9.80
2023-02-08T13:47:26.883Z,10.70
2023-02-08T13:50:01.966Z,11.70
2023-02-08T13:52:46.498Z,10.40
2023-02-08T13:55:36.212Z,10.80
2023-02-08T13:58:06.075Z,12.30
2023-02-08T14:00:36.888Z,10.20
2023-02-08T14:03:08.638Z,12.20
2023-02-08T14:05:49.086Z,12.00
2023-02-08T14:09:06.516Z,11.30
2023-02-08T14:11:49.794Z,11.10
2023-02-08T14:14:26.505Z,13.10
2023-02-08T14:17:19.794Z,13.20
2023-02-08T14:19:59.123Z,13.90
2023-02-08T14:22:34.966Z,13.90
2023-02-08T14:25:18.030Z,16.80
2023-02-08T14:27:56.756Z,15.70
2023-02-08T14:30:31.397Z,16.90
2023-02-08T14:33:09.401Z,14.80
2023-02-08T14:35:42.791Z,14.40
2023-02-08T14:38:20.764Z,16.10
2023-02-08T14:40:58.062Z,13.20
2023-02-08T14:43:43.190Z,14.30
2023-02-08T14:46:40.354Z,16.80
2023-02-08T14:49:19.414Z,15.30
2023-02-08T14:52:07.686Z,16.20
2023-02-08T14:54:46.310Z,14.70
2023-02-08T14:57:28.139Z,15.00
2023-02-08T15:00:00.784Z,16.20
2023-02-08T15:02:31.592Z,17.90
2023-02-08T15:05:02.458Z,18.50
2023-02-08T15:07:54.377Z,20.50
2023-02-08T15:10:25.011Z,20.40
2023-02-08T15:13:06.720Z,19.20
2023-02-08T15:15:44.152Z,19.10
2023-02-08T15:18:20.551Z,18.70
2023-02-08T15:21:05.032Z,20.50
2023-02-08T15:23:33.645Z,21.40
2023-02-08T15:26:05.071Z,25.80
2023-02-08T15:28:37.045Z,24.60
2023-02-08T15:31:12.036Z,26.40
2023-02-08T15:33:43.613Z,20.70
2023-02-08T15:36:17.149Z,29.70
2023-02-08T15:38:45.968Z,35.00
2023-02-08T15:41:23.952Z,23.10
2023-02-08T15:44:16.096Z,23.60
2023-02-08T15:46:46.535Z,20.40
2023-02-08T15:49:18.336Z,21.60
2023-02-08T15:51:48.049Z,22.10
2023-02-08T15:54:20.032Z,25.40
2023-02-08T15:57:19.173Z,35.20
2023-02-08T15:59:48.881Z,31.60
2023-02-08T16:02:22.327Z,23.10
2023-02-08T16:04:51.411Z,22.90
2023-02-08T16:07:34.982Z,26.80
2023-02-08T16:10:06.311Z,28.10
2023-02-08T16:12:36.270Z,25.40
2023-02-08T16:15:04.989Z,27.10
2023-02-08T16:17:44.388Z,27.90
2023-02-08T16:20:35.964Z,29.40
2023-02-08T16:26:43.474Z,18.90
2023-02-08T16:29:24.100Z,21.90
2023-02-08T16:32:03.791Z,25.50
2023-02-08T16:34:36.219Z,23.10
2023-02-08T16:37:20.841Z,25.40
2023-02-08T16:39:54.043Z,22.70
2023-02-08T16:42:40.234Z,66.40
2023-02-08T16:45:09.874Z,30.40
2023-02-08T16:47:40.089Z,28.10
2023-02-08T16:50:14.763Z,31.40
2023-02-08T16:52:43.653Z,37.30
2023-02-08T16:55:21.360Z,38.40
2023-02-08T16:57:53.047Z,75.50
2023-02-08T17:00:23.425Z,60.10
2023-02-08T17:02:52.951Z,91.20
2023-02-08T17:05:27.217Z,86.50
2023-02-08T17:07:56.054Z,79.20
2023-02-08T17:10:36.925Z,79.20
2023-02-08T17:13:19.922Z,68.80
2023-02-08T17:15:54.756Z,60.20
2023-02-08T17:18:39.478Z,58.20
2023-02-08T17:21:10.322Z,66.70
2023-02-08T17:23:44.905Z,72.90
2023-02-08T17:26:27.584Z,65.30
2023-02-08T17:28:57.436Z,31.10
2023-02-08T17:31:29.338Z,54.40
2023-02-08T17:34:04.690Z,64.40
2023-02-08T17:39:05.547Z,91.30
2023-02-08T17:41:39.286Z,113.20
2023-02-08T17:44:08.402Z,107.70
2023-02-08T17:46:42.394Z,82.90
2023-02-08T17:49:11.355Z,80.00
2023-02-08T17:51:40.299Z,56.50
2023-02-08T17:54:17.152Z,37.40
2023-02-08T17:56:45.631Z,36.30
2023-02-08T17:59:14.105Z,38.30
2023-02-08T18:01:46.308Z,41.40
2023-02-08T18:04:21.465Z,37.30
2023-02-08T18:06:59.591Z,40.00
2023-02-08T18:09:28.417Z,45.40
2023-02-08T18:11:56.702Z,46.90
2023-02-08T18:14:25.000Z,50.10
2023-02-08T18:16:53.433Z,44.20
2023-02-08T18:19:22.412Z,42.90
2023-02-08T18:21:54.417Z,38.20
2023-02-08T18:24:22.984Z,42.00
2023-02-08T18:26:51.363Z,42.50
2023-02-08T18:29:20.150Z,40.10
2023-02-08T18:31:50.386Z,40.70
2023-02-08T18:34:27.640Z,41.10
2023-02-08T18:36:57.050Z,39.40
2023-02-08T18:39:25.685Z,34.50
2023-02-08T18:41:54.941Z,34.40
2023-02-08T18:44:23.597Z,31.30
2023-02-08T18:46:53.325Z,31.00
2023-02-08T18:49:22.480Z,33.80
2023-02-08T18:51:51.538Z,36.10
2023-02-08T18:54:23.160Z,44.80
2023-02-08T18:56:56.164Z,50.30
2023-02-08T18:59:24.554Z,39.70
2023-02-08T19:01:55.258Z,34.70
2023-02-08T19:04:26.295Z,38.90
2023-02-08T19:06:56.354Z,37.10
2023-02-08T19:09:24.710Z,34.70
2023-02-08T19:11:53.108Z,32.70
2023-02-08T19:14:21.987Z,34.70
2023-02-08T19:16:50.440Z,35.70
2023-02-08T19:19:18.887Z,36.40
2023-02-08T19:21:47.352Z,35.30
2023-02-08T19:24:15.745Z,39.80
2023-02-08T19:26:44.143Z,38.90
2023-02-08T19:29:16.156Z,40.70
2023-02-08T19:31:46.041Z,42.90
2023-02-08T19:34:14.712Z,41.30
2023-02-08T19:36:46.620Z,56.90
2023-02-08T19:39:24.300Z,62.10
2023-02-08T19:41:54.281Z,65.60
2023-02-08T19:44:25.171Z,58.20
2023-02-08T19:46:55.395Z,52.40
2023-02-08T19:49:27.324Z,57.70
2023-02-08T19:52:00.926Z,59.90
2023-02-08T19:54:29.495Z,62.00
2023-02-08T19:56:57.964Z,50.60
2023-02-08T19:59:28.560Z,40.10
2023-02-08T20:01:57.132Z,37.30
2023-02-08T20:04:29.718Z,36.90
2023-02-08T20:06:59.280Z,54.60
2023-02-08T20:09:28.074Z,52.00
2023-02-08T20:11:58.075Z,50.20
2023-02-08T20:14:31.294Z,54.80
2023-02-08T20:17:02.657Z,50.40
2023-02-08T20:19:39.859Z,40.20
2023-02-08T20:22:08.301Z,34.60
2023-02-08T20:24:40.564Z,36.70
2023-02-08T20:27:15.085Z,37.30
2023-02-08T20:29:46.691Z,39.20
2023-02-08T20:32:15.295Z,46.10
2023-02-08T20:34:54.131Z,49.90
2023-02-08T20:37:27.680Z,48.20
2023-02-08T20:39:58.046Z,48.40
2023-02-08T20:42:28.860Z,47.90
2023-02-08T20:44:57.838Z,45.40
2023-02-08T20:47:27.455Z,46.00
2023-02-08T20:49:57.705Z,43.90
2023-02-08T20:52:27.169Z,43.10
2023-02-08T20:54:55.597Z,42.20
2023-02-08T20:57:25.316Z,38.90
2023-02-08T20:59:53.811Z,42.70
2023-02-08T21:02:23.712Z,41.70
2023-02-08T21:04:54.917Z,39.30
2023-02-08T21:07:23.556Z,38.90
2023-02-08T21:09:51.921Z,36.30
2023-02-08T21:12:20.371Z,38.50
2023-02-08T21:14:49.765Z,39.00
2023-02-08T21:17:18.361Z,42.40
2023-02-08T21:19:50.780Z,44.00
2023-02-08T21:24:52.421Z,40.80
2023-02-08T21:27:20.952Z,43.30
2023-02-08T21:29:52.112Z,42.20
2023-02-08T21:32:20.524Z,43.40
2023-02-08T21:34:51.031Z,45.30
2023-02-08T21:37:19.391Z,44.40
2023-02-08T21:39:50.194Z,47.40
2023-02-08T21:42:18.685Z,49.30
2023-02-08T21:44:47.193Z,48.00
2023-02-08T21:47:15.547Z,44.00
2023-02-08T21:50:02.633Z,45.80
2023-02-08T21:52:50.096Z,48.50
2023-02-08T21:55:18.944Z,48.40
2023-02-08T21:57:47.196Z,49.20
2023-02-08T22:00:15.779Z,57.20
2023-02-08T22:02:44.329Z,56.30
2023-02-08T22:05:32.602Z,51.80
2023-02-08T22:08:01.220Z,50.00
2023-02-08T22:10:32.105Z,52.00
2023-02-08T22:13:00.998Z,47.60
2023-02-08T22:15:30.324Z,53.60
2023-02-08T22:18:01.594Z,50.00
2023-02-08T22:20:30.652Z,48.30
2023-02-08T22:22:59.001Z,47.60
2023-02-08T22:25:27.905Z,48.50
2023-02-08T22:27:56.419Z,53.60
2023-02-08T22:30:25.742Z,51.70
2023-02-08T22:32:57.352Z,48.30
2023-02-08T22:35:27.571Z,46.10
2023-02-08T22:37:56.153Z,43.00
2023-02-08T22:40:24.432Z,46.70
2023-02-08T22:42:53.951Z,46.10
2023-02-08T22:45:22.310Z,68.80
2023-02-08T22:47:50.603Z,74.60
2023-02-08T22:50:19.404Z,73.40
2023-02-08T22:52:47.773Z,73.30
2023-02-08T22:55:16.155Z,74.00
2023-02-08T22:57:44.566Z,72.10
2023-02-08T23:00:15.075Z,68.70
2023-02-08T23:02:44.253Z,67.30
2023-02-08T23:05:13.139Z,70.60
2023-02-08T23:07:41.424Z,64.70
2023-02-08T23:10:10.656Z,62.70
2023-02-08T23:12:39.668Z,67.20
2023-02-08T23:15:11.523Z,69.60
2023-02-08T23:17:39.916Z,75.30
2023-02-08T23:20:09.791Z,71.80
2023-02-08T23:22:38.222Z,65.90
2023-02-08T23:25:09.438Z,61.50
2023-02-08T23:27:38.993Z,63.70
2023-02-08T23:30:09.724Z,62.00
2023-02-08T23:32:40.248Z,70.10
2023-02-08T23:35:10.062Z,68.30
2023-02-08T23:37:38.511Z,70.60
2023-02-08T23:40:07.685Z,71.10
2023-02-08T23:42:37.063Z,68.50
2023-02-08T23:45:09.139Z,65.00
2023-02-08T23:47:39.398Z,65.50
2023-02-08T23:50:08.939Z,65.70
2023-02-08T23:52:37.716Z,60.80
2023-02-08T23:55:27.327Z,65.30
2023-02-08T23:58:08.365Z,65.70
